createdAt,value
2019-06-07T00:02:02.149Z,13.42
2019-06-07T00:04:28.597Z,13.39
2019-06-07T00:06:54.760Z,13.35
2019-06-07T00:09:22.535Z,13.32
2019-06-07T00:11:49.248Z,13.28
2019-06-07T00:14:16.615Z,13.25
2019-06-07T00:16:43.919Z,13.21
2019-06-07T00:19:11.934Z,13.18
2019-06-07T00:22:13.478Z,13.16
2019-06-07T00:24:08.580Z,11.70
2019-06-07T00:26:55.086Z,13.12
2019-06-07T00:29:04.845Z,13.09
2019-06-07T00:31:31.100Z,13.06
2019-06-07T00:33:57.791Z,13.05
2019-06-07T00:36:23.832Z,13.02
2019-06-07T00:38:49.943Z,12.99
2019-06-07T00:41:19.311Z,12.97
2019-06-07T00:43:44.672Z,12.95
2019-06-07T00:46:14.094Z,12.91
2019-06-07T00:48:39.311Z,12.88
2019-06-07T00:51:05.475Z,12.86
2019-06-07T00:53:32.671Z,12.82
2019-06-07T00:55:59.355Z,12.80
2019-06-07T00:58:27.918Z,12.75
2019-06-07T01:00:54.037Z,12.73
2019-06-07T01:03:25.201Z,12.71
2019-06-07T01:05:48.652Z,12.69
2019-06-07T01:08:16.170Z,12.65
2019-06-07T01:10:54.679Z,12.63
2019-06-07T01:13:11.147Z,12.60
2019-06-07T01:15:37.447Z,12.58
2019-06-07T01:20:31.978Z,12.54
2019-06-07T01:22:57.962Z,12.49
2019-06-07T01:25:26.137Z,12.45
2019-06-07T01:27:52.561Z,12.41
2019-06-07T01:30:22.824Z,12.39
2019-06-07T01:32:47.424Z,12.36
2019-06-07T01:35:13.566Z,12.33
2019-06-07T01:37:40.028Z,12.29
2019-06-07T01:40:07.171Z,12.25
2019-06-07T01:42:33.196Z,12.20
2019-06-07T01:44:59.703Z,12.18
2019-06-07T01:47:31.099Z,12.17
2019-06-07T01:49:53.987Z,12.15
2019-06-07T01:52:23.532Z,12.13
2019-06-07T01:54:57.958Z,12.10
2019-06-07T01:57:36.606Z,12.07
2019-06-07T01:59:44.178Z,12.04
2019-06-07T02:02:10.188Z,12.02
2019-06-07T02:04:36.569Z,12.00
2019-06-07T02:07:03.394Z,11.98
2019-06-07T02:09:31.854Z,11.97
2019-06-07T02:11:58.938Z,11.96
2019-06-07T02:14:26.871Z,11.94
2019-06-07T02:16:53.227Z,11.92
2019-06-07T02:19:19.521Z,11.87
2019-06-07T02:21:45.649Z,11.83
2019-06-07T02:24:11.709Z,11.81
2019-06-07T02:26:38.824Z,11.79
2019-06-07T02:29:04.930Z,11.76
2019-06-07T02:31:38.289Z,11.73
2019-06-07T02:33:59.183Z,11.70
2019-06-07T02:36:29.650Z,11.66
2019-06-07T02:38:53.943Z,11.62
2019-06-07T02:41:19.855Z,11.56
2019-06-07T02:43:45.884Z,11.52
2019-06-07T02:46:38.543Z,11.52
2019-06-07T02:48:55.745Z,11.51
2019-06-07T02:51:26.513Z,11.50
2019-06-07T02:53:50.346Z,11.47
2019-06-07T02:58:44.846Z,11.38
2019-06-07T03:01:11.062Z,11.36
2019-06-07T03:03:39.958Z,11.36
2019-06-07T03:06:05.143Z,11.37
2019-06-07T03:08:35.481Z,11.37
2019-06-07T03:10:59.968Z,11.35
2019-06-07T03:13:28.940Z,11.34
2019-06-07T03:15:56.158Z,11.33
2019-06-07T03:18:29.019Z,11.30
2019-06-07T03:21:05.471Z,11.28
2019-06-07T03:23:28.746Z,11.26
2019-06-07T03:25:57.310Z,11.23
2019-06-07T03:28:23.310Z,11.22
2019-06-07T03:31:01.489Z,11.21
2019-06-07T03:33:17.345Z,11.21
2019-06-07T03:35:43.277Z,11.22
2019-06-07T03:38:09.621Z,11.23
2019-06-07T03:40:39.611Z,11.24
2019-06-07T03:43:04.007Z,11.26
2019-06-07T03:45:32.338Z,11.26
2019-06-07T03:47:58.400Z,11.25
2019-06-07T03:50:24.477Z,9.81
2019-06-07T03:52:50.531Z,11.27
2019-06-07T03:55:16.771Z,11.28
2019-06-07T04:00:11.276Z,11.30
2019-06-07T04:02:38.609Z,11.30
2019-06-07T04:05:05.539Z,11.31
2019-06-07T04:07:32.972Z,11.30
2019-06-07T04:09:59.805Z,11.30
2019-06-07T04:12:28.121Z,11.32
2019-06-07T04:14:54.829Z,11.32
2019-06-07T04:17:21.254Z,11.34
2019-06-07T04:19:47.597Z,9.88
2019-06-07T04:22:14.327Z,11.37
2019-06-07T04:24:42.063Z,8.54
2019-06-07T04:27:08.213Z,11.43
2019-06-07T04:29:56.710Z,11.48
2019-06-07T04:32:04.458Z,11.50
2019-06-07T04:34:34.870Z,11.54
2019-06-07T04:36:59.763Z,11.59
2019-06-07T04:39:26.478Z,11.67
2019-06-07T04:41:54.265Z,11.75
2019-06-07T04:44:20.904Z,11.83
2019-06-07T04:46:49.327Z,11.92
2019-06-07T04:49:16.427Z,12.03
2019-06-07T04:51:43.358Z,12.11
2019-06-07T04:54:10.021Z,12.18
2019-06-07T04:56:38.538Z,12.26
2019-06-07T04:59:04.848Z,12.30
2019-06-07T05:01:32.371Z,12.33
2019-06-07T05:03:58.928Z,12.36
2019-06-07T05:06:25.269Z,12.39
2019-06-07T05:08:51.292Z,12.42
2019-06-07T05:11:17.341Z,12.43
2019-06-07T05:13:44.610Z,12.44
2019-06-07T05:16:10.769Z,12.47
2019-06-07T05:18:40.176Z,12.49
2019-06-07T05:21:05.351Z,12.52
2019-06-07T05:25:59.373Z,12.61
2019-06-07T05:28:25.790Z,12.66
2019-06-07T05:31:08.310Z,12.73
2019-06-07T05:33:20.599Z,12.79
2019-06-07T05:35:46.994Z,12.83
2019-06-07T05:38:13.297Z,12.87
2019-06-07T05:40:46.105Z,12.94
2019-06-07T05:43:21.560Z,13.00
2019-06-07T05:45:47.615Z,13.05
2019-06-07T05:48:13.937Z,13.05
2019-06-07T05:50:54.616Z,13.08
2019-06-07T05:53:09.819Z,13.13
2019-06-07T05:55:37.938Z,13.14
2019-06-07T05:58:04.182Z,13.28
2019-06-07T06:00:30.504Z,13.35
2019-06-07T06:03:05.300Z,13.40
2019-06-07T06:05:34.228Z,13.47
2019-06-07T06:07:53.096Z,13.54
2019-06-07T06:10:19.100Z,13.61
2019-06-07T06:12:51.452Z,13.63
2019-06-07T06:15:13.514Z,13.69
2019-06-07T06:17:42.747Z,13.76
2019-06-07T06:20:07.814Z,13.87
2019-06-07T06:22:34.223Z,13.95
2019-06-07T06:25:31.072Z,14.04
2019-06-07T06:28:03.204Z,14.17
2019-06-07T06:29:57.945Z,14.20
2019-06-07T06:32:41.823Z,14.26
2019-06-07T06:34:53.931Z,14.37
2019-06-07T06:37:20.631Z,14.45
2019-06-07T06:39:50.036Z,14.60
2019-06-07T06:42:14.798Z,14.87
2019-06-07T06:44:43.633Z,14.95
2019-06-07T06:47:09.106Z,15.02
2019-06-07T06:49:35.301Z,15.18
2019-06-07T06:52:02.853Z,15.35
2019-06-07T06:54:40.628Z,15.55
2019-06-07T06:57:18.461Z,15.80
2019-06-07T06:59:38.544Z,16.06
2019-06-07T07:01:53.356Z,16.28
2019-06-07T07:04:19.489Z,16.50
2019-06-07T07:06:47.992Z,16.70
2019-06-07T07:09:15.896Z,16.81
2019-06-07T07:11:55.258Z,17.20
2019-06-07T07:14:10.277Z,17.62
2019-06-07T07:16:37.121Z,17.92
2019-06-07T07:19:03.133Z,18.24
2019-06-07T07:21:29.198Z,18.40
2019-06-07T07:24:19.729Z,18.52
2019-06-07T07:26:24.040Z,18.65
2019-06-07T07:28:51.151Z,18.60
2019-06-07T07:31:18.213Z,18.65
2019-06-07T07:34:27.346Z,18.81
2019-06-07T07:36:28.540Z,18.80
2019-06-07T07:38:41.204Z,18.82
2019-06-07T07:41:14.790Z,18.83
2019-06-07T07:43:35.255Z,18.74
2019-06-07T07:46:03.293Z,18.72
2019-06-07T07:48:29.808Z,18.74
2019-06-07T07:51:00.282Z,18.87
2019-06-07T07:53:24.509Z,19.15
2019-06-07T07:55:54.973Z,19.23
2019-06-07T07:58:19.331Z,19.13
2019-06-07T08:00:53.117Z,19.06
2019-06-07T08:03:13.671Z,19.03
2019-06-07T08:05:42.931Z,18.99
2019-06-07T08:08:08.646Z,18.95
2019-06-07T08:10:34.935Z,18.99
2019-06-07T08:13:22.709Z,19.01
2019-06-07T08:15:29.740Z,19.12
2019-06-07T08:18:00.427Z,19.20
2019-06-07T08:20:23.877Z,19.40
2019-06-07T08:22:52.478Z,19.56
2019-06-07T08:25:19.336Z,19.70
2019-06-07T08:27:46.984Z,19.72
2019-06-07T08:30:47.325Z,19.58
2019-06-07T08:32:43.019Z,19.69
2019-06-07T08:35:09.340Z,19.72
2019-06-07T08:38:14.048Z,19.47
2019-06-07T08:40:06.470Z,19.57
2019-06-07T08:42:37.280Z,19.53
2019-06-07T08:45:05.038Z,19.48
2019-06-07T08:47:29.233Z,19.47
2019-06-07T08:49:59.617Z,19.52
2019-06-07T08:52:23.624Z,19.65
2019-06-07T08:54:50.471Z,20.00
2019-06-07T08:57:21.744Z,20.18
2019-06-07T08:59:45.972Z,20.25
2019-06-07T09:02:23.299Z,20.17
2019-06-07T09:04:40.179Z,20.15
2019-06-07T09:07:18.886Z,20.07
2019-06-07T09:09:34.566Z,20.15
2019-06-07T09:12:08.217Z,20.33
2019-06-07T09:14:29.480Z,19.12
2019-06-07T09:17:04.305Z,20.53
2019-06-07T09:19:24.817Z,19.50
2019-06-07T09:21:50.924Z,20.71
2019-06-07T09:24:16.931Z,21.21
2019-06-07T09:26:43.369Z,21.78
2019-06-07T09:29:12.011Z,22.56
2019-06-07T09:31:52.046Z,23.05
2019-06-07T09:34:13.784Z,23.40
2019-06-07T09:36:34.392Z,23.29
2019-06-07T09:39:06.482Z,23.05
2019-06-07T09:41:46.909Z,23.09
2019-06-07T09:44:10.691Z,23.37
2019-06-07T09:46:25.372Z,23.49
2019-06-07T09:51:20.790Z,23.67
2019-06-07T09:53:47.377Z,23.99
2019-06-07T09:56:13.969Z,23.94
2019-06-07T09:58:51.925Z,23.64
2019-06-07T10:01:13.217Z,23.44
2019-06-07T10:03:37.700Z,23.23
2019-06-07T10:06:12.369Z,23.25
2019-06-07T10:11:02.551Z,23.57
2019-06-07T10:13:28.852Z,24.41
2019-06-07T10:15:55.169Z,25.14
2019-06-07T10:18:21.397Z,25.26
2019-06-07T10:20:47.780Z,25.33
2019-06-07T10:23:14.853Z,24.89
2019-06-07T10:25:41.110Z,24.96
2019-06-07T10:28:08.202Z,24.66
2019-06-07T10:30:34.869Z,24.59
2019-06-07T10:33:02.217Z,24.83
2019-06-07T10:35:28.616Z,24.93
2019-06-07T10:37:58.176Z,25.33
2019-06-07T10:40:23.851Z,25.66
2019-06-07T10:42:50.031Z,25.88
2019-06-07T10:45:16.581Z,26.27
2019-06-07T10:47:42.878Z,26.69
2019-06-07T10:50:10.463Z,26.75
2019-06-07T10:52:36.858Z,27.07
2019-06-07T10:55:04.597Z,27.33
2019-06-07T10:57:30.920Z,27.04
2019-06-07T10:59:57.313Z,27.07
2019-06-07T11:02:23.630Z,27.38
2019-06-07T11:04:50.841Z,27.81
2019-06-07T11:07:17.021Z,27.59
2019-06-07T11:09:43.474Z,27.72
2019-06-07T11:12:10.708Z,28.03
2019-06-07T11:14:37.237Z,27.01
2019-06-07T11:17:05.117Z,28.34
2019-06-07T11:19:33.378Z,27.95
2019-06-07T11:22:04.440Z,28.13
2019-06-07T11:24:31.375Z,27.94
2019-06-07T11:26:57.518Z,27.44
2019-06-07T11:29:24.186Z,27.77
2019-06-07T11:31:50.799Z,27.81
2019-06-07T11:34:16.828Z,28.30
2019-06-07T11:36:43.416Z,28.47
2019-06-07T11:39:11.097Z,28.24
2019-06-07T11:41:37.377Z,27.99
2019-06-07T11:44:04.670Z,27.75
2019-06-07T11:46:31.575Z,27.80
2019-06-07T11:48:57.751Z,28.03
2019-06-07T11:51:25.054Z,28.16
2019-06-07T11:53:55.565Z,28.27
2019-06-07T11:56:21.587Z,28.42
2019-06-07T11:58:48.313Z,28.43
2019-06-07T12:01:16.654Z,28.47
2019-06-07T12:03:43.393Z,28.69
2019-06-07T12:06:11.938Z,28.84
2019-06-07T12:08:38.203Z,28.59
2019-06-07T12:11:04.442Z,28.50
2019-06-07T12:13:30.655Z,28.45
2019-06-07T12:15:56.787Z,28.44
2019-06-07T12:18:25.063Z,28.61
2019-06-07T12:20:52.133Z,28.74
2019-06-07T12:23:20.132Z,28.76
2019-06-07T12:25:46.578Z,28.78
2019-06-07T12:28:14.544Z,28.67
2019-06-07T12:30:43.474Z,28.75
2019-06-07T12:33:11.208Z,27.85
2019-06-07T12:35:38.645Z,28.90
2019-06-07T12:38:05.942Z,28.87
2019-06-07T12:40:32.938Z,27.60
2019-06-07T12:43:01.125Z,29.00
2019-06-07T12:45:43.811Z,28.62
2019-06-07T12:47:57.989Z,28.34
2019-06-07T12:50:41.651Z,28.31
2019-06-07T12:52:52.812Z,28.44
2019-06-07T12:55:22.495Z,28.53
2019-06-07T12:57:49.578Z,28.76
2019-06-07T13:00:18.226Z,28.80
2019-06-07T13:02:44.592Z,28.78
2019-06-07T13:05:11.403Z,27.98
2019-06-07T13:07:37.602Z,28.86
2019-06-07T13:10:08.273Z,28.62
2019-06-07T13:12:34.590Z,28.64
2019-06-07T13:15:01.357Z,28.84
2019-06-07T13:17:28.636Z,28.83
2019-06-07T13:19:54.973Z,28.95
2019-06-07T13:22:22.290Z,28.92
2019-06-07T13:24:48.400Z,29.13
2019-06-07T13:27:16.135Z,29.06
2019-06-07T13:29:42.447Z,29.19
2019-06-07T13:32:08.551Z,28.95
2019-06-07T13:34:35.248Z,28.92
2019-06-07T13:37:01.293Z,29.06
2019-06-07T13:39:29.712Z,28.99
2019-06-07T13:41:55.775Z,29.23
2019-06-07T13:44:22.882Z,29.37
2019-06-07T13:46:49.287Z,29.32
2019-06-07T13:49:17.216Z,29.45
2019-06-07T13:51:43.776Z,29.53
2019-06-07T13:54:11.891Z,29.63
2019-06-07T13:57:01.285Z,29.80
2019-06-07T13:59:13.732Z,29.85
2019-06-07T14:01:40.349Z,29.95
2019-06-07T14:04:07.368Z,29.84
2019-06-07T14:06:39.421Z,28.65
2019-06-07T14:09:05.787Z,29.52
2019-06-07T14:11:49.553Z,29.54
2019-06-07T14:14:00.657Z,29.46
2019-06-07T14:16:28.342Z,29.34
2019-06-07T14:18:54.594Z,29.34
2019-06-07T14:21:20.837Z,29.43
2019-06-07T14:23:49.334Z,29.41
2019-06-07T14:26:15.466Z,29.40
2019-06-07T14:28:41.604Z,29.47
2019-06-07T14:31:08.105Z,29.44
2019-06-07T14:33:34.221Z,29.36
2019-06-07T14:36:00.402Z,29.28
2019-06-07T14:38:27.343Z,29.12
2019-06-07T14:40:53.557Z,29.25
2019-06-07T14:43:19.834Z,29.27
2019-06-07T14:45:46.178Z,29.32
2019-06-07T14:48:12.144Z,29.37
2019-06-07T14:50:38.209Z,28.36
2019-06-07T14:53:04.649Z,29.24
2019-06-07T14:55:31.224Z,29.33
2019-06-07T14:57:57.539Z,29.22
2019-06-07T15:40:58.911Z,28.08
2019-06-07T15:43:25.347Z,28.94
2019-06-07T15:45:51.526Z,28.87
2019-06-07T15:48:17.545Z,28.93
2019-06-07T15:50:43.850Z,28.76
2019-06-07T15:53:10.048Z,28.74
2019-06-07T15:55:41.005Z,28.72
2019-06-07T15:58:04.484Z,28.61
2019-06-07T16:00:31.318Z,28.69
2019-06-07T16:02:57.969Z,28.77
2019-06-07T16:05:24.366Z,28.75
2019-06-07T16:07:50.442Z,28.83
2019-06-07T16:10:16.685Z,28.80
2019-06-07T16:12:58.801Z,28.70
2019-06-07T16:15:11.340Z,28.64
2019-06-07T16:17:39.244Z,28.60
2019-06-07T16:20:05.941Z,28.58
2019-06-07T16:22:33.446Z,28.54
2019-06-07T16:25:06.731Z,28.62
2019-06-07T16:27:34.397Z,28.63
2019-06-07T16:30:08.743Z,28.44
2019-06-07T16:32:28.768Z,28.54
2019-06-07T16:34:54.797Z,28.55
2019-06-07T16:37:21.196Z,28.48
2019-06-07T16:39:48.574Z,28.43
2019-06-07T16:42:14.888Z,28.25
2019-06-07T16:44:42.525Z,28.19
2019-06-07T16:47:08.761Z,28.08
2019-06-07T16:49:34.911Z,27.99
2019-06-07T16:52:01.938Z,27.99
2019-06-07T16:54:28.219Z,27.89
2019-06-07T16:56:54.269Z,27.07
2019-06-07T16:59:21.033Z,28.05
2019-06-07T17:01:47.663Z,28.09
2019-06-07T17:04:13.621Z,27.99
2019-06-07T17:06:41.688Z,28.00
2019-06-07T17:09:08.170Z,27.97
2019-06-07T17:11:34.418Z,28.01
2019-06-07T17:14:01.041Z,27.83
2019-06-07T17:16:27.305Z,28.01
2019-06-07T17:18:53.536Z,27.90
2019-06-07T17:21:19.437Z,27.84
2019-06-07T17:23:47.392Z,27.73
2019-06-07T17:26:13.804Z,27.70
2019-06-07T17:28:41.644Z,26.74
2019-06-07T17:31:08.072Z,27.68
2019-06-07T17:33:34.104Z,27.30
2019-06-07T17:36:00.218Z,27.38
2019-06-07T17:38:26.848Z,27.32
2019-06-07T17:40:53.028Z,26.34
2019-06-07T17:43:19.294Z,27.39
2019-06-07T17:45:45.493Z,27.33
2019-06-07T17:48:12.327Z,27.27
2019-06-07T17:50:39.634Z,27.22
2019-06-07T17:53:05.849Z,27.20
2019-06-07T17:55:32.007Z,27.18
2019-06-07T17:57:58.165Z,27.13
2019-06-07T18:00:29.227Z,27.09
2019-06-07T18:02:55.960Z,27.06
2019-06-07T18:05:22.940Z,26.93
2019-06-07T18:07:51.828Z,26.83
2019-06-07T18:10:39.341Z,26.66
2019-06-07T18:13:05.643Z,26.63
2019-06-07T18:15:37.563Z,26.62
2019-06-07T18:18:03.592Z,26.58
2019-06-07T18:20:29.842Z,26.49
2019-06-07T18:22:57.205Z,26.39
2019-06-07T18:25:23.702Z,26.29
2019-06-07T18:27:52.666Z,26.17
2019-06-07T18:30:19.606Z,26.08
2019-06-07T18:32:46.835Z,25.95
2019-06-07T18:35:13.397Z,25.89
2019-06-07T18:37:39.529Z,25.81
2019-06-07T18:40:08.425Z,25.71
2019-06-07T18:42:34.668Z,25.63
2019-06-07T18:45:05.091Z,25.53
2019-06-07T18:47:33.210Z,25.44
2019-06-07T18:49:59.323Z,25.34
2019-06-07T18:52:27.490Z,25.21
2019-06-07T18:54:54.973Z,25.10
2019-06-07T18:57:21.101Z,25.00
2019-06-07T18:59:48.300Z,24.92
2019-06-07T19:02:25.849Z,24.83
2019-06-07T19:04:52.341Z,24.73
2019-06-07T19:07:18.686Z,24.63
2019-06-07T19:09:44.662Z,24.27
2019-06-07T19:12:10.971Z,24.43
2019-06-07T19:14:37.634Z,24.30
2019-06-07T19:17:03.718Z,23.20
2019-06-07T19:19:30.155Z,24.08
2019-06-07T19:21:58.202Z,23.96
2019-06-07T19:24:24.329Z,23.91
2019-06-07T19:26:50.686Z,23.83
2019-06-07T19:29:16.713Z,23.75
2019-06-07T19:31:42.759Z,23.62
2019-06-07T19:34:09.189Z,23.47
2019-06-07T19:36:47.980Z,23.38
2019-06-07T19:39:07.354Z,23.34
2019-06-07T19:41:34.192Z,23.27
2019-06-07T19:44:02.430Z,23.25
2019-06-07T19:46:28.789Z,22.17
2019-06-07T19:48:55.089Z,23.10
2019-06-07T19:51:21.864Z,23.08
2019-06-07T19:53:49.897Z,23.02
2019-06-07T19:56:16.662Z,22.99
2019-06-07T19:58:43.062Z,22.97
2019-06-07T20:01:09.191Z,21.85
2019-06-07T20:03:35.459Z,22.85
2019-06-07T20:09:33.262Z,22.70
2019-06-07T20:12:00.752Z,22.62
2019-06-07T20:14:28.826Z,22.54
2019-06-07T20:16:55.294Z,22.47
2019-06-07T20:19:21.450Z,22.40
2019-06-07T20:21:47.572Z,22.33
2019-06-07T20:24:26.343Z,22.27
2019-06-07T20:26:42.053Z,22.21
2019-06-07T20:29:24.981Z,22.15
2019-06-07T20:31:38.460Z,22.06
2019-06-07T20:34:05.806Z,22.01
2019-06-07T20:36:32.269Z,20.82
2019-06-07T20:39:00.060Z,21.89
2019-06-07T20:41:29.125Z,21.84
2019-06-07T20:43:55.402Z,21.78
2019-06-07T20:46:23.371Z,21.77
2019-06-07T20:48:50.405Z,21.76
2019-06-07T20:51:16.581Z,21.65
2019-06-07T20:53:43.769Z,21.61
2019-06-07T20:56:10.050Z,21.51
2019-06-07T20:58:38.236Z,21.36
2019-06-07T21:01:05.367Z,21.13
2019-06-07T21:03:34.407Z,20.78
2019-06-07T21:06:01.369Z,20.70
2019-06-07T21:08:29.116Z,20.47
2019-06-07T21:10:56.785Z,20.44
2019-06-07T21:13:23.620Z,20.29
2019-06-07T21:15:50.052Z,20.11
2019-06-07T21:18:19.888Z,19.90
2019-06-07T21:20:45.541Z,19.55
2019-06-07T21:40:44.779Z,18.12
2019-06-07T21:43:12.542Z,17.85
2019-06-07T21:45:38.997Z,17.77
2019-06-07T21:48:07.053Z,17.72
2019-06-07T21:50:33.535Z,17.65
2019-06-07T21:52:59.553Z,17.58
2019-06-07T21:55:26.085Z,17.57
2019-06-07T21:57:52.170Z,17.49
2019-06-07T22:00:30.568Z,17.41
2019-06-07T22:02:57.017Z,17.37
2019-06-07T22:05:23.412Z,17.35
2019-06-07T22:07:49.801Z,17.30
2019-06-07T22:10:16.832Z,17.24
2019-06-07T22:12:43.262Z,17.16
2019-06-07T22:15:32.054Z,17.14
2019-06-07T22:17:42.418Z,17.03
2019-06-07T22:20:08.841Z,16.90
2019-06-07T22:22:35.262Z,16.81
2019-06-07T22:25:01.901Z,16.78
2019-06-07T22:27:28.079Z,16.70
2019-06-07T22:29:54.678Z,16.59
2019-06-07T22:32:21.140Z,16.56
2019-06-07T22:34:47.457Z,16.46
2019-06-07T22:37:16.447Z,14.95
2019-06-07T22:39:42.223Z,16.32
2019-06-07T22:42:08.825Z,16.26
2019-06-07T22:44:35.040Z,16.23
2019-06-07T22:47:01.291Z,16.19
2019-06-07T22:49:27.731Z,16.16
2019-06-07T22:52:07.944Z,16.14
2019-06-07T22:54:22.037Z,16.13
2019-06-07T22:56:52.889Z,16.10
2019-06-07T22:59:20.618Z,16.09
2019-06-07T23:01:47.216Z,16.08
2019-06-07T23:04:16.711Z,16.04
2019-06-07T23:06:42.987Z,14.90
2019-06-07T23:09:09.411Z,15.90
2019-06-07T23:11:35.568Z,15.84
2019-06-07T23:14:02.519Z,15.79
2019-06-07T23:16:28.785Z,15.71
2019-06-07T23:18:55.339Z,15.64
2019-06-07T23:21:22.654Z,15.61
2019-06-07T23:23:49.068Z,15.62
2019-06-07T23:26:16.212Z,15.62
2019-06-07T23:28:42.762Z,15.62
2019-06-07T23:31:10.243Z,15.63
2019-06-07T23:33:38.644Z,15.67
2019-06-07T23:36:05.035Z,15.66
2019-06-07T23:38:31.085Z,15.63
2019-06-07T23:40:57.881Z,14.81
2019-06-07T23:43:23.857Z,15.58
2019-06-07T23:45:50.373Z,15.58
2019-06-07T23:48:17.464Z,15.53
2019-06-07T23:50:44.552Z,15.46
2019-06-07T23:53:11.701Z,15.42
2019-06-07T23:55:37.900Z,15.38
2019-06-07T23:58:04.310Z,15.33
